Time;durP1;ratioP1;P1;durP2;ratioP2;P2;SDS_P1;SDS_P2;PMS_P1;PMS_P2;Temp;Humidity;BMP_temperature;BMP_pressure;BME280_temperature;BME280_humidity;BME280_pressure;Samples;Min_cycle;Max_cycle;Signal;HPM_P1;HPM_P2
2023/03/01 00:01:08;;;;;;;17.80;6.82;;;;;;;-1.32;77.49;103042.44;5049396;28;20032;-63
2023/03/01 00:03:33;;;;;;;14.20;6.70;;;;;;;-1.34;77.80;103045.16;5049949;28;20021;-63
2023/03/01 00:05:59;;;;;;;12.43;6.55;;;;;;;-1.36;78.20;103046.97;5049478;28;20031;-63
2023/03/01 00:08:25;;;;;;;15.57;8.63;;;;;;;-1.34;78.12;103044.28;5049355;28;20299;-64
2023/03/01 00:11:16;;;;;;;15.10;7.15;;;;;;;-1.39;78.18;103036.66;5049295;28;20036;-63
2023/03/01 00:13:42;;;;;;;12.75;6.28;;;;;;;-1.34;78.76;103042.53;5044629;28;20380;-63
2023/03/01 00:16:13;;;;;;;12.45;6.60;;;;;;;-1.34;78.13;103041.66;5049195;28;20033;-63
2023/03/01 00:18:39;;;;;;;15.38;6.68;;;;;;;-1.35;79.15;103035.59;5049276;28;20033;-63
2023/03/01 00:21:05;;;;;;;15.55;8.15;;;;;;;-1.35;79.33;103040.81;5049122;28;20045;-63
2023/03/01 00:23:31;;;;;;;20.98;9.48;;;;;;;-1.35;79.02;103037.34;5049020;28;20056;-63
2023/03/01 00:25:56;;;;;;;12.23;6.85;;;;;;;-1.34;78.74;103046.91;5049162;28;20086;-64
2023/03/01 00:28:21;;;;;;;16.77;8.68;;;;;;;-1.35;79.82;103039.97;5049453;28;20419;-63
2023/03/01 00:30:47;;;;;;;17.77;9.25;;;;;;;-1.35;79.03;103039.97;5050213;28;20060;-63
2023/03/01 00:33:13;;;;;;;16.83;7.68;;;;;;;-1.43;79.51;103032.44;5053253;28;20052;-63
2023/03/01 00:35:38;;;;;;;14.43;6.70;;;;;;;-1.43;80.19;103036.84;5053315;28;20403;-63
2023/03/01 00:38:04;;;;;;;16.52;8.60;;;;;;;-1.42;79.49;103047.22;5053094;28;20116;-63
2023/03/01 00:40:32;;;;;;;22.73;8.35;;;;;;;-1.42;79.36;103052.44;5053094;28;20036;-63
2023/03/01 00:42:58;;;;;;;12.52;7.80;;;;;;;-1.45;79.79;103047.34;5053103;28;20061;-63
2023/03/01 00:45:24;;;;;;;14.80;7.13;;;;;;;-1.48;79.96;103038.78;5053001;28;20518;-63
2023/03/01 00:47:50;;;;;;;21.13;7.78;;;;;;;-1.51;79.61;103031.91;5053080;28;20396;-63
2023/03/01 00:50:16;;;;;;;14.80;7.07;;;;;;;-1.55;80.54;103031.19;5053035;28;20030;-63
2023/03/01 00:52:41;;;;;;;16.10;7.93;;;;;;;-1.55;80.38;103023.34;5053039;28;20395;-63
2023/03/01 00:55:07;;;;;;;12.85;6.65;;;;;;;-1.56;80.39;103028.63;5052806;28;20112;-63
2023/03/01 00:57:33;;;;;;;12.48;6.93;;;;;;;-1.61;80.57;103017.50;5052698;28;20028;-63
2023/03/01 00:59:58;;;;;;;13.88;7.47;;;;;;;-1.64;80.54;103018.50;5052650;28;20180;-63
2023/03/01 01:02:24;;;;;;;16.30;8.98;;;;;;;-1.67;80.79;103020.41;5052937;28;20029;-63
2023/03/01 01:04:50;;;;;;;14.48;7.97;;;;;;;-1.69;80.60;103015.22;5052700;28;20136;-63
2023/03/01 01:07:15;;;;;;;13.68;7.53;;;;;;;-1.68;81.05;103016.06;5052699;28;20029;-63
2023/03/01 01:09:41;;;;;;;13.75;7.75;;;;;;;-1.72;80.50;103017.13;5052608;28;20043;-63
2023/03/01 01:12:07;;;;;;;18.27;7.88;;;;;;;-1.76;81.51;103008.53;5052661;28;20480;-63
2023/03/01 01:14:33;;;;;;;19.15;7.68;;;;;;;-1.80;81.52;103014.81;5052575;28;20434;-63
2023/03/01 01:16:59;;;;;;;18.10;7.93;;;;;;;-1.85;81.68;103009.75;5052329;28;20060;-63
2023/03/01 01:19:25;;;;;;;19.83;8.32;;;;;;;-1.84;81.35;103002.75;5034634;28;20080;-63
2023/03/01 01:21:50;;;;;;;16.50;7.30;;;;;;;-1.89;81.24;102995.09;5052049;28;20477;-63
2023/03/01 01:24:16;;;;;;;13.32;6.63;;;;;;;-1.89;81.55;102996.88;5052087;28;20149;-63
2023/03/01 01:26:42;;;;;;;13.88;6.65;;;;;;;-1.90;82.49;102987.31;5052293;28;20041;-63
2023/03/01 01:29:08;;;;;;;17.08;7.10;;;;;;;-1.92;81.88;102994.38;5052267;28;20029;-63
2023/03/01 01:31:34;;;;;;;14.85;7.90;;;;;;;-1.96;82.00;102979.75;5052274;28;20870;-63
2023/03/01 01:34:01;;;;;;;16.02;6.40;;;;;;;-1.99;81.84;102973.72;5052248;28;20090;-63
2023/03/01 01:36:27;;;;;;;16.67;7.40;;;;;;;-2.01;82.09;102972.94;5052115;28;20032;-63
2023/03/01 01:38:53;;;;;;;12.55;5.80;;;;;;;-2.07;82.52;102974.94;5052050;28;20048;-63
2023/03/01 01:41:20;;;;;;;13.55;6.78;;;;;;;-2.07;83.08;102972.31;5051849;28;20033;-63
2023/03/01 01:43:49;;;;;;;12.45;6.93;;;;;;;-2.06;82.97;102968.81;5051901;28;20604;-63
2023/03/01 01:46:35;;;;;;;14.68;7.18;;;;;;;-2.06;83.25;102977.50;5051768;28;20025;-63
2023/03/01 01:49:10;;;;;;;14.25;6.70;;;;;;;-2.07;82.72;102972.31;5052023;28;20021;-63
2023/03/01 01:51:40;;;;;;;16.13;6.93;;;;;;;-2.10;83.23;102965.44;5052101;28;20480;-63
2023/03/01 01:54:23;;;;;;;13.65;7.22;;;;;;;-2.14;83.68;102961.25;5051669;28;20091;-63
2023/03/01 01:57:03;;;;;;;13.35;6.65;;;;;;;-2.13;83.64;102965.56;5051877;28;20118;-63
2023/03/01 01:59:30;;;;;;;13.63;5.82;;;;;;;-2.16;83.15;102951.78;5051720;28;20040;-63
2023/03/01 02:02:01;;;;;;;16.25;7.53;;;;;;;-2.19;83.41;102957.13;5051745;28;20029;-63
2023/03/01 02:04:26;;;;;;;17.40;7.90;;;;;;;-2.24;84.08;102950.31;5051497;28;20082;-63
2023/03/01 02:06:59;;;;;;;11.85;6.15;;;;;;;-2.28;83.77;102955.72;5051493;28;20036;-63
2023/03/01 02:09:25;;;;;;;14.90;6.22;;;;;;;-2.38;84.42;102944.81;5051605;28;20017;-63
2023/03/01 02:11:51;;;;;;;14.38;6.10;;;;;;;-2.36;84.27;102947.34;5051478;28;20044;-63
2023/03/01 02:14:17;;;;;;;15.80;6.28;;;;;;;-2.34;84.57;102948.13;5051498;28;20029;-63
2023/03/01 02:16:43;;;;;;;15.32;6.43;;;;;;;-2.35;84.73;102954.28;5051363;28;20468;-63
2023/03/01 02:19:17;;;;;;;13.25;6.60;;;;;;;-2.42;85.34;102957.13;5051058;28;20368;-63
2023/03/01 02:22:21;;;;;;;13.35;7.03;;;;;;;-2.45;85.17;102945.94;5051152;28;20097;-63
2023/03/01 02:24:56;;;;;;;11.15;6.35;;;;;;;-2.48;85.23;102956.53;5027804;28;20432;-63
2023/03/01 02:27:26;;;;;;;16.70;7.35;;;;;;;-2.48;85.72;102957.38;5051081;28;20425;-63
2023/03/01 02:29:52;;;;;;;16.52;7.47;;;;;;;-2.51;85.42;102949.66;5051152;28;20031;-63
2023/03/01 02:32:24;;;;;;;13.95;6.18;;;;;;;-2.49;85.75;102944.34;5051083;28;20033;-63
2023/03/01 02:34:52;;;;;;;12.07;5.78;;;;;;;-2.51;85.55;102949.66;5051138;28;20029;-63
2023/03/01 02:37:24;;;;;;;15.20;7.22;;;;;;;-2.57;85.49;102935.97;5050898;28;20033;-63
2023/03/01 02:39:57;;;;;;;14.20;6.22;;;;;;;-2.53;85.13;102946.25;5050879;28;20262;-63
2023/03/01 02:42:27;;;;;;;12.90;6.10;;;;;;;-2.54;85.63;102947.19;5050837;28;20136;-63
2023/03/01 02:44:53;;;;;;;10.57;5.13;;;;;;;-2.52;85.87;102952.31;5050736;28;20114;-63
2023/03/01 02:47:19;;;;;;;16.65;8.15;;;;;;;-2.53;85.89;102948.88;5050965;28;20519;-63
2023/03/01 02:49:44;;;;;;;11.43;6.80;;;;;;;-2.53;86.52;102945.41;5050685;28;20082;-63
2023/03/01 02:52:31;;;;;;;15.48;6.35;;;;;;;-2.50;85.63;102951.34;5050582;28;20061;-63
2023/03/01 02:55:08;;;;;;;11.93;6.10;;;;;;;-2.49;86.32;102945.22;5050042;28;20032;-63
2023/03/01 02:57:37;;;;;;;17.13;8.35;;;;;;;-2.55;86.58;102935.00;5050576;28;20029;-63
2023/03/01 03:00:10;;;;;;;13.82;6.63;;;;;;;-2.54;86.77;102944.56;5050651;28;20057;-63
2023/03/01 03:02:36;;;;;;;14.88;6.68;;;;;;;-2.55;86.53;102937.63;5050377;28;20032;-63
2023/03/01 03:05:11;;;;;;;14.20;7.03;;;;;;;-2.58;86.80;102942.97;5050368;28;20036;-63
2023/03/01 03:07:39;;;;;;;12.50;6.43;;;;;;;-2.61;87.21;102943.09;5050409;28;20070;-63
2023/03/01 03:10:08;;;;;;;14.18;6.68;;;;;;;-2.61;87.35;102947.47;5050310;28;20464;-63
2023/03/01 03:12:34;;;;;;;12.57;6.93;;;;;;;-2.62;87.67;102948.34;5050761;28;20063;-63
2023/03/01 03:14:59;;;;;;;14.80;6.95;;;;;;;-2.64;87.83;102948.44;5050161;28;20095;-63
2023/03/01 03:17:24;;;;;;;14.55;6.25;;;;;;;-2.65;87.75;102950.19;5050009;28;20025;-63
2023/03/01 03:19:50;;;;;;;11.40;6.32;;;;;;;-2.63;87.24;102957.13;5050162;28;20063;-63
2023/03/01 03:22:15;;;;;;;13.05;6.05;;;;;;;-2.65;87.46;102950.19;5049886;28;20025;-64
2023/03/01 03:24:41;;;;;;;13.77;6.10;;;;;;;-2.63;87.58;102944.91;5049896;28;20591;-63
2023/03/01 03:27:07;;;;;;;11.80;6.20;;;;;;;-2.65;87.63;102933.66;5050023;28;20036;-63
2023/03/01 03:29:33;;;;;;;18.23;6.93;;;;;;;-2.60;87.90;102939.56;5050023;28;20033;-64
2023/03/01 03:31:58;;;;;;;15.18;8.35;;;;;;;-2.58;88.56;102940.34;5049805;28;20045;-64
2023/03/01 03:34:24;;;;;;;10.73;5.07;;;;;;;-2.61;88.18;102932.63;5050035;28;20083;-64
2023/03/01 03:36:59;;;;;;;11.35;5.50;;;;;;;-2.58;87.87;102934.28;5049872;28;20029;-63
2023/03/01 03:39:26;;;;;;;16.15;6.97;;;;;;;-2.56;87.57;102937.69;5049816;28;20025;-63
2023/03/01 03:41:52;;;;;;;14.50;6.97;;;;;;;-2.55;88.46;102942.00;5049779;28;20460;-63
2023/03/01 03:44:17;;;;;;;14.73;7.25;;;;;;;-2.55;88.07;102948.06;5049660;28;20272;-64
2023/03/01 03:46:42;;;;;;;13.10;5.85;;;;;;;-2.56;88.56;102945.53;5049637;28;20033;-64
2023/03/01 03:49:08;;;;;;;11.60;5.78;;;;;;;-2.59;88.26;102937.78;5049725;28;20060;-64
2023/03/01 03:51:33;;;;;;;13.65;6.60;;;;;;;-2.61;88.06;102937.88;5049495;28;20649;-64
2023/03/01 03:53:58;;;;;;;11.70;6.28;;;;;;;-2.64;88.40;102935.38;5049696;28;20021;-63
2023/03/01 03:56:25;;;;;;;16.02;6.63;;;;;;;-2.66;88.67;102934.56;5049567;28;20044;-63
2023/03/01 03:58:51;;;;;;;12.82;6.35;;;;;;;-2.67;88.32;102938.97;5049414;28;20036;-63
2023/03/01 04:01:17;;;;;;;10.90;5.50;;;;;;;-2.69;88.85;102932.09;5049405;28;20033;-63
2023/03/01 04:03:46;;;;;;;11.02;6.35;;;;;;;-2.70;88.53;102928.63;5049516;28;20029;-64
2023/03/01 04:06:12;;;;;;;11.63;6.05;;;;;;;-2.73;88.87;102923.50;5048517;28;20031;-63
2023/03/01 04:08:37;;;;;;;13.85;6.30;;;;;;;-2.75;88.99;102917.50;5049296;28;20025;-63
2023/03/01 04:11:25;;;;;;;15.52;6.78;;;;;;;-2.79;89.17;102910.69;5049324;28;20433;-64
2023/03/01 04:13:51;;;;;;;12.85;5.75;;;;;;;-2.83;89.40;102916.94;5049225;28;20055;-64
2023/03/01 04:16:17;;;;;;;12.60;6.20;;;;;;;-2.85;89.03;102916.16;5049321;28;20028;-64
2023/03/01 04:18:43;;;;;;;15.02;6.72;;;;;;;-2.91;90.56;102908.53;5048993;28;20041;-63
2023/03/01 04:21:08;;;;;;;11.43;5.50;;;;;;;-2.89;90.83;102906.72;5047588;28;20087;-64
2023/03/01 04:23:34;;;;;;;12.80;5.80;;;;;;;-2.91;90.04;102904.19;5049198;28;20079;-64
2023/03/01 04:26:00;;;;;;;12.23;5.63;;;;;;;-2.92;89.52;102904.25;5049208;28;20024;-64
2023/03/01 04:28:33;;;;;;;13.98;6.28;;;;;;;-2.99;90.49;102900.16;5048967;28;20025;-63
2023/03/01 04:31:12;;;;;;;13.82;7.53;;;;;;;-2.97;90.82;102901.78;5048932;28;20411;-63
2023/03/01 04:33:46;;;;;;;16.27;6.70;;;;;;;-2.99;90.21;102892.31;5049051;28;20119;-64
2023/03/01 04:36:12;;;;;;;10.00;4.90;;;;;;;-3.00;90.26;102895.84;5049163;28;20373;-63
2023/03/01 04:38:38;;;;;;;15.13;5.65;;;;;;;-3.00;89.93;102891.47;5048887;28;20044;-63
2023/03/01 04:41:10;;;;;;;15.45;6.80;;;;;;;-3.02;90.84;102885.47;5049136;28;20036;-63
2023/03/01 04:43:37;;;;;;;14.15;6.18;;;;;;;-3.02;90.65;102885.47;5049148;28;20443;-63
2023/03/01 04:46:09;;;;;;;13.77;6.43;;;;;;;-3.05;90.94;102876.91;5048937;28;20033;-63
2023/03/01 04:48:36;;;;;;;10.60;5.68;;;;;;;-3.07;90.36;102879.56;5049079;28;20025;-64
2023/03/01 04:51:01;;;;;;;19.67;5.80;;;;;;;-3.15;90.22;102865.94;5049029;28;20112;-63
2023/03/01 04:53:28;;;;;;;13.98;7.10;;;;;;;-3.06;90.93;102888.25;5048899;28;20116;-63
2023/03/01 04:55:55;;;;;;;18.48;7.38;;;;;;;-3.15;90.83;102866.78;5049019;28;20037;-63
2023/03/01 04:58:23;;;;;;;13.10;7.22;;;;;;;-3.07;90.99;102887.38;5048816;28;20025;-64
2023/03/01 05:00:48;;;;;;;14.25;7.10;;;;;;;-3.10;90.08;102885.75;5048770;28;20419;-63
2023/03/01 05:03:17;;;;;;;13.27;6.90;;;;;;;-3.11;90.24;102886.66;5048822;28;20063;-64
2023/03/01 05:05:44;;;;;;;13.25;6.32;;;;;;;-3.14;90.82;102880.72;5048740;28;20041;-63
2023/03/01 05:08:17;;;;;;;14.88;5.78;;;;;;;-3.15;91.00;102882.44;5048676;28;20472;-63
2023/03/01 05:10:48;;;;;;;13.45;6.70;;;;;;;-3.16;91.05;102880.75;5048716;28;20029;-64
2023/03/01 05:13:14;;;;;;;11.20;5.72;;;;;;;-3.18;91.13;102879.97;5048736;28;20019;-63
2023/03/01 05:15:40;;;;;;;15.15;6.18;;;;;;;-3.19;91.43;102882.66;5049133;28;20517;-63
2023/03/01 05:18:11;;;;;;;13.90;5.93;;;;;;;-3.24;91.41;102867.16;5051631;28;20033;-64
2023/03/01 05:20:37;;;;;;;14.88;7.07;;;;;;;-3.19;91.84;102875.66;5052308;28;20121;-64
2023/03/01 05:23:05;;;;;;;12.90;6.60;;;;;;;-3.21;91.65;102872.25;5052199;28;20052;-63
2023/03/01 05:25:32;;;;;;;13.10;7.35;;;;;;;-3.20;91.38;102860.91;5052330;28;20030;-63
2023/03/01 05:28:04;;;;;;;13.82;5.63;;;;;;;-3.21;91.79;102859.22;5052214;28;20029;-63
2023/03/01 05:30:32;;;;;;;13.52;7.20;;;;;;;-3.21;91.51;102855.75;5052273;28;20035;-63
2023/03/01 05:32:58;;;;;;;16.83;7.32;;;;;;;-3.23;91.78;102850.59;5052026;28;20028;-64
2023/03/01 05:35:23;;;;;;;14.82;7.05;;;;;;;-3.25;91.51;102848.94;5052134;28;20392;-64
2023/03/01 05:37:50;;;;;;;18.88;7.95;;;;;;;-3.32;93.01;102838.75;5051997;28;20039;-63
2023/03/01 05:40:21;;;;;;;15.82;7.03;;;;;;;-3.30;92.43;102843.91;5052072;28;20021;-63
2023/03/01 05:42:56;;;;;;;16.57;7.93;;;;;;;-3.30;91.94;102843.91;5052123;28;20106;-63
2023/03/01 05:45:23;;;;;;;14.07;7.22;;;;;;;-3.32;91.31;102838.75;5051904;28;20035;-63
2023/03/01 05:47:50;;;;;;;19.35;8.38;;;;;;;-3.31;91.77;102844.81;5051857;28;20029;-63
2023/03/01 05:50:25;;;;;;;16.15;7.30;;;;;;;-3.35;92.59;102838.03;5051590;28;20029;-64
2023/03/01 05:53:14;;;;;;;14.73;7.32;;;;;;;-3.39;92.06;102833.81;5051664;28;20480;-63
2023/03/01 05:55:40;;;;;;;13.70;6.10;;;;;;;-3.41;92.83;102844.28;5051478;28;20036;-63
2023/03/01 05:58:09;;;;;;;12.27;6.10;;;;;;;-3.43;93.14;102833.09;5051519;28;20025;-64
2023/03/01 06:00:35;;;;;;;17.05;7.35;;;;;;;-3.42;92.37;102846.97;5051598;28;20024;-63
2023/03/01 06:03:01;;;;;;;17.33;7.38;;;;;;;-3.42;92.61;102842.59;5051782;28;20036;-63
2023/03/01 06:05:27;;;;;;;16.50;7.07;;;;;;;-3.44;92.65;102848.78;5051508;28;20035;-63
2023/03/01 06:07:53;;;;;;;12.05;5.63;;;;;;;-3.46;94.01;102848.81;5051188;28;20024;-63
2023/03/01 06:10:19;;;;;;;18.02;8.38;;;;;;;-3.47;93.04;102849.75;5051282;28;20488;-63
2023/03/01 06:12:45;;;;;;;17.33;8.80;;;;;;;-3.48;93.23;102844.56;5051561;28;20025;-63
2023/03/01 06:15:13;;;;;;;13.98;7.75;;;;;;;-3.51;92.87;102845.56;5051319;28;20029;-63
2023/03/01 06:17:41;;;;;;;18.80;8.23;;;;;;;-3.53;93.27;102839.53;5051292;28;20083;-63
2023/03/01 06:20:14;;;;;;;14.98;7.00;;;;;;;-3.54;94.56;102835.22;5051153;28;20051;-63
2023/03/01 06:22:40;;;;;;;16.67;7.18;;;;;;;-3.59;94.16;102839.75;5051010;28;20087;-63
2023/03/01 06:25:07;;;;;;;16.52;6.82;;;;;;;-3.60;94.06;102840.66;5051109;28;20078;-63
2023/03/01 06:27:32;;;;;;;15.70;8.13;;;;;;;-3.62;93.84;102845.06;5050714;28;20025;-63
2023/03/01 06:29:57;;;;;;;15.52;6.72;;;;;;;-3.59;93.97;102850.19;5050318;28;20039;-63
2023/03/01 06:32:23;;;;;;;16.02;8.82;;;;;;;-3.59;93.59;102845.84;5051024;28;20041;-63
2023/03/01 06:34:49;;;;;;;18.13;7.82;;;;;;;-3.57;93.00;102844.00;5050957;28;20059;-63
2023/03/01 06:37:15;;;;;;;14.93;7.88;;;;;;;-3.56;93.16;102837.91;5050629;28;20480;-63
2023/03/01 06:39:40;;;;;;;15.27;7.43;;;;;;;-3.55;93.68;102851.78;5050706;28;20035;-63
2023/03/01 06:42:07;;;;;;;16.25;7.70;;;;;;;-3.51;93.64;102842.94;5050603;28;20040;-64
2023/03/01 06:44:33;;;;;;;17.63;7.43;;;;;;;-3.49;94.54;102843.72;5050695;28;20024;-63
2023/03/01 06:46:59;;;;;;;16.00;8.30;;;;;;;-3.50;94.52;102835.97;5050859;28;20063;-63
2023/03/01 06:49:24;;;;;;;18.58;8.05;;;;;;;-3.46;94.52;102834.94;5050712;28;20515;-63
2023/03/01 06:51:49;;;;;;;16.27;8.00;;;;;;;-3.42;94.58;102846.97;5050949;28;20051;-63
2023/03/01 06:54:15;;;;;;;16.05;7.68;;;;;;;-3.36;95.68;102854.56;5050605;28;21048;-63
2023/03/01 06:56:40;;;;;;;16.50;6.82;;;;;;;-3.19;95.01;102841.75;5050517;28;20031;-63
2023/03/01 06:59:05;;;;;;;17.95;7.93;;;;;;;-2.94;93.38;102838.19;5050461;28;20112;-63
2023/03/01 07:01:31;;;;;;;16.30;6.80;;;;;;;-2.76;92.16;102836.59;5050566;28;20090;-63
2023/03/01 07:03:57;;;;;;;12.90;6.95;;;;;;;-2.65;91.76;102831.81;5050867;28;20024;-63
2023/03/01 07:06:23;;;;;;;14.35;7.22;;;;;;;-2.51;92.38;102836.50;5050309;28;20307;-64
2023/03/01 07:08:48;;;;;;;11.23;6.07;;;;;;;-2.40;91.63;102830.81;5050315;28;20033;-63
2023/03/01 07:11:14;;;;;;;18.10;7.75;;;;;;;-2.36;91.11;102832.38;5050216;28;20032;-63
2023/03/01 07:13:39;;;;;;;21.67;9.30;;;;;;;-2.33;90.57;102830.50;5050217;28;20044;-63
2023/03/01 07:16:05;;;;;;;18.33;7.85;;;;;;;-2.32;90.71;102826.97;5050209;28;20039;-63
2023/03/01 07:18:30;;;;;;;15.05;7.50;;;;;;;-2.30;90.99;102835.59;5049966;28;20025;-63
2023/03/01 07:20:56;;;;;;;14.88;7.05;;;;;;;-2.36;90.85;102835.81;5050000;28;20064;-63
2023/03/01 07:23:21;;;;;;;14.70;7.68;;;;;;;-2.40;90.80;102838.66;5049705;28;20412;-63
2023/03/01 07:25:54;;;;;;;18.42;8.20;;;;;;;-2.34;90.63;102843.63;5050087;28;20115;-64
2023/03/01 07:28:19;;;;;;;17.70;8.80;;;;;;;-2.35;91.16;102842.78;5049941;28;20025;-64
2023/03/01 07:30:45;;;;;;;16.05;7.47;;;;;;;-2.33;91.25;102846.19;5050015;28;20024;-64
2023/03/01 07:33:10;;;;;;;17.15;8.30;;;;;;;-2.29;91.02;102849.50;5049872;28;20040;-64
2023/03/01 07:35:35;;;;;;;16.77;8.25;;;;;;;-2.21;91.00;102848.25;5049830;28;20039;-64
2023/03/01 07:38:01;;;;;;;14.25;7.82;;;;;;;-2.10;91.29;102853.03;5049955;28;20032;-64
2023/03/01 07:40:26;;;;;;;16.23;8.40;;;;;;;-1.99;90.80;102857.84;5049219;28;20029;-63
2023/03/01 07:42:58;;;;;;;16.40;7.82;;;;;;;-1.88;90.54;102845.13;5049624;28;20039;-63
2023/03/01 07:45:27;;;;;;;17.77;9.63;;;;;;;-1.60;90.25;102852.63;5045493;28;20130;-63
2023/03/01 07:47:52;;;;;;;14.38;7.25;;;;;;;-1.37;88.97;102853.34;5043448;28;20020;-64
2023/03/01 07:50:18;;;;;;;15.45;8.07;;;;;;;-1.27;88.25;102849.41;5047756;28;20032;-66
2023/03/01 07:52:48;;;;;;;19.83;9.25;;;;;;;-1.26;88.32;102842.41;5048251;28;20024;-66
2023/03/01 07:55:14;;;;;;;21.25;10.10;;;;;;;-1.26;88.85;102847.63;5049684;28;20136;-66
2023/03/01 07:57:40;;;;;;;15.07;8.48;;;;;;;-1.21;88.88;102850.88;5049373;28;20064;-65
2023/03/01 08:00:06;;;;;;;17.48;7.35;;;;;;;-1.14;87.89;102841.84;5049497;28;20112;-66
2023/03/01 08:02:31;;;;;;;13.38;6.93;;;;;;;-1.03;87.51;102851.81;5049832;28;20032;-66
2023/03/01 08:04:57;;;;;;;16.75;7.60;;;;;;;-0.91;86.51;102848.63;5047930;28;20064;-66
2023/03/01 08:07:22;;;;;;;29.92;8.40;;;;;;;-0.84;86.16;102847.38;5049300;28;20108;-66
2023/03/01 08:09:48;;;;;;;19.45;8.40;;;;;;;-0.75;86.77;102849.59;5049260;28;20495;-65
2023/03/01 08:12:13;;;;;;;22.77;7.43;;;;;;;-0.52;86.09;102847.63;5049206;28;20086;-65
2023/03/01 08:14:38;;;;;;;17.95;9.13;;;;;;;-0.34;85.65;102856.34;5048246;28;20039;-66
2023/03/01 08:17:04;;;;;;;16.65;8.73;;;;;;;-0.08;85.07;102855.91;5047921;28;20043;-65
2023/03/01 08:19:29;;;;;;;20.20;7.85;;;;;;;0.27;83.51;102853.25;5048900;28;20035;-66
2023/03/01 08:21:57;;;;;;;21.63;8.23;;;;;;;0.43;82.80;102850.66;5049365;28;20108;-66
2023/03/01 08:24:23;;;;;;;23.60;10.77;;;;;;;0.41;81.97;102849.88;5048954;28;20467;-66
2023/03/01 08:26:49;;;;;;;13.70;7.13;;;;;;;0.40;82.10;102850.81;5049048;28;20120;-66
2023/03/01 08:29:14;;;;;;;17.38;8.70;;;;;;;0.48;82.25;102845.16;5048895;28;20035;-66
2023/03/01 08:31:40;;;;;;;14.48;6.22;;;;;;;0.51;81.91;102845.84;5048876;28;20039;-65
2023/03/01 08:34:09;;;;;;;16.55;8.52;;;;;;;0.50;82.15;102845.91;5048868;28;20104;-66
2023/03/01 08:36:43;;;;;;;15.65;8.18;;;;;;;0.49;81.92;102849.47;5049008;28;20040;-66
2023/03/01 08:39:13;;;;;;;15.35;7.20;;;;;;;0.52;82.30;102842.28;5048901;28;20051;-66
2023/03/01 08:41:39;;;;;;;12.60;7.00;;;;;;;0.52;82.55;102833.56;5049025;28;20025;-66
2023/03/01 08:44:06;;;;;;;15.70;7.90;;;;;;;0.60;81.57;102829.63;5048866;28;20028;-67
2023/03/01 08:46:37;;;;;;;18.42;9.13;;;;;;;0.66;81.91;102828.44;5048731;28;20041;-67
2023/03/01 08:49:21;;;;;;;14.93;7.30;;;;;;;0.74;82.35;102815.72;5049103;28;20021;-67
2023/03/01 08:51:47;;;;;;;13.15;6.35;;;;;;;0.86;81.49;102825.56;5050057;28;20021;-67
2023/03/01 08:54:19;;;;;;;13.63;7.07;;;;;;;0.91;80.75;102814.78;5052982;28;20036;-66
2023/03/01 08:56:44;;;;;;;14.88;6.20;;;;;;;1.02;80.54;102819.44;5052867;28;20028;-66
2023/03/01 08:59:11;;;;;;;14.45;6.07;;;;;;;1.17;80.17;102823.00;5052661;28;20079;-66
2023/03/01 09:01:36;;;;;;;15.20;6.22;;;;;;;1.28;79.56;102818.84;5052898;28;20404;-65
2023/03/01 09:04:03;;;;;;;15.13;6.07;;;;;;;1.41;79.22;102820.75;5052790;28;20187;-66
2023/03/01 09:06:32;;;;;;;14.00;6.97;;;;;;;1.50;77.62;102814.97;5052764;28;20040;-66
2023/03/01 09:08:57;;;;;;;11.75;5.70;;;;;;;1.62;76.78;102811.59;5052615;28;20037;-67
2023/03/01 09:11:23;;;;;;;12.68;5.78;;;;;;;1.72;75.63;102799.63;5052447;28;20037;-67
2023/03/01 09:13:48;;;;;;;17.50;6.65;;;;;;;1.79;75.32;102802.75;5052441;28;20024;-67
2023/03/01 09:16:17;;;;;;;17.27;6.80;;;;;;;1.86;75.20;102813.72;5051125;28;20477;-67
2023/03/01 09:18:43;;;;;;;12.52;5.13;;;;;;;1.91;73.94;102804.66;5052361;28;20033;-67
2023/03/01 09:21:14;;;;;;;14.82;6.53;;;;;;;1.96;73.95;102801.72;5052659;28;20420;-66
2023/03/01 09:23:45;;;;;;;12.90;5.72;;;;;;;2.00;73.58;102802.41;5052230;28;20443;-66
2023/03/01 09:26:16;;;;;;;15.07;5.97;;;;;;;2.07;73.75;102796.69;5052299;28;20391;-66
2023/03/01 09:28:42;;;;;;;13.48;6.63;;;;;;;2.13;72.37;102782.28;5052104;28;20052;-67
2023/03/01 09:31:07;;;;;;;10.43;5.45;;;;;;;2.29;70.58;102784.84;5052312;28;20116;-67
2023/03/01 09:33:33;;;;;;;11.75;5.65;;;;;;;2.34;68.66;102785.41;5052178;28;20021;-68
2023/03/01 09:36:00;;;;;;;11.23;5.75;;;;;;;2.40;68.91;102785.00;5052234;28;20041;-70
2023/03/01 09:38:26;;;;;;;14.48;7.43;;;;;;;2.34;68.57;102774.88;5052071;28;20064;-72
2023/03/01 09:40:52;;;;;;;12.98;6.15;;;;;;;2.52;69.80;102780.78;5052021;28;20061;-68
2023/03/01 09:43:42;;;;;;;12.77;5.40;;;;;;;2.66;68.96;102787.81;5051975;28;20106;-69
2023/03/01 09:46:11;;;;;;;14.07;6.28;;;;;;;2.73;67.46;102782.03;5051977;28;20376;-69
2023/03/01 09:48:57;;;;;;;13.45;6.18;;;;;;;2.83;68.72;102772.63;5051893;28;20114;-74
2023/03/01 09:51:29;;;;;;;14.85;6.75;;;;;;;2.84;68.60;102763.75;5051945;28;20343;-73
2023/03/01 09:53:56;;;;;;;14.63;5.50;;;;;;;2.94;69.51;102768.44;5051685;28;20064;-69
2023/03/01 09:56:27;;;;;;;13.57;5.85;;;;;;;3.02;66.97;102771.44;5051571;28;20507;-72
2023/03/01 09:59:13;;;;;;;11.30;6.10;;;;;;;3.03;66.54;102768.66;5051596;28;20158;-70
2023/03/01 10:01:57;;;;;;;10.98;4.93;;;;;;;2.99;65.70;102766.34;5051466;28;20106;-72
2023/03/01 10:04:32;;;;;;;17.67;7.00;;;;;;;3.04;66.71;102761.63;5051546;28;20025;-72
2023/03/01 10:07:09;;;;;;;11.98;5.20;;;;;;;3.07;66.81;102767.53;5051542;28;20025;-72
2023/03/01 10:09:40;;;;;;;16.30;6.47;;;;;;;3.03;65.12;102752.00;5051288;28;20047;-71
2023/03/01 10:12:13;;;;;;;12.13;5.93;;;;;;;3.02;65.40;102747.69;5051388;28;20021;-71
2023/03/01 10:15:02;;;;;;;12.27;5.13;;;;;;;3.02;65.40;102742.44;5051309;28;20502;-72
2023/03/01 10:17:37;;;;;;;11.95;6.35;;;;;;;3.11;65.64;102740.97;5051200;28;20017;-72
2023/03/01 10:20:25;;;;;;;9.50;4.82;;;;;;;3.20;63.10;102732.47;5051340;28;20112;-73
2023/03/01 10:22:52;;;;;;;11.45;5.35;;;;;;;3.24;64.47;102732.13;5050884;28;20037;-72
2023/03/01 10:25:43;;;;;;;12.02;5.00;;;;;;;3.29;61.98;102716.84;5051090;28;20087;-72
2023/03/01 10:28:37;;;;;;;12.07;5.57;;;;;;;3.32;62.55;102715.81;5050629;28;20400;-71
2023/03/01 10:31:02;;;;;;;10.93;5.68;;;;;;;3.33;62.26;102711.38;5045144;28;20075;-72
2023/03/01 10:33:35;;;;;;;11.02;5.75;;;;;;;3.40;60.82;102717.94;5044947;28;20437;-71
2023/03/01 10:36:01;;;;;;;12.23;6.05;;;;;;;3.43;61.53;102710.66;5045379;28;20182;-71
2023/03/01 10:38:30;;;;;;;16.33;6.28;;;;;;;3.50;62.83;102714.56;5045291;28;20608;-72
2023/03/01 10:40:59;;;;;;;14.20;5.80;;;;;;;3.61;61.17;102713.00;5044882;28;20037;-72
2023/03/01 10:43:42;;;;;;;10.25;5.10;;;;;;;3.64;61.62;102716.28;5045222;28;20396;-72
2023/03/01 10:46:24;;;;;;;12.65;6.18;;;;;;;3.61;61.21;102715.63;5045005;28;20021;-72
2023/03/01 10:49:20;;;;;;;11.70;5.43;;;;;;;3.68;61.23;102712.47;5044863;28;20365;-73
2023/03/01 10:51:49;;;;;;;13.00;6.78;;;;;;;3.65;59.63;102715.31;5044383;28;20025;-72
2023/03/01 10:54:19;;;;;;;11.95;5.78;;;;;;;3.65;60.70;102717.97;5045273;28;20036;-72
2023/03/01 10:56:56;;;;;;;13.00;5.88;;;;;;;3.66;60.59;102710.88;5045044;28;20414;-72
2023/03/01 10:59:36;;;;;;;9.48;4.68;;;;;;;3.61;59.15;102708.56;5044937;28;20131;-72
2023/03/01 11:02:27;;;;;;;12.68;6.57;;;;;;;3.67;61.47;102718.69;5044676;28;20025;-72
2023/03/01 11:04:59;;;;;;;11.07;5.72;;;;;;;3.63;59.74;102704.03;5045120;28;20029;-70
2023/03/01 11:07:25;;;;;;;11.27;6.53;;;;;;;3.65;58.81;102711.84;5046557;28;20020;-71
2023/03/01 11:09:50;;;;;;;11.48;6.22;;;;;;;3.69;59.82;102713.31;5050725;28;20087;-71
2023/03/01 11:12:16;;;;;;;17.83;6.05;;;;;;;3.76;60.41;102705.81;5050598;28;20027;-70
2023/03/01 11:14:52;;;;;;;14.00;6.03;;;;;;;3.82;60.38;102711.50;5050092;28;20021;-70
2023/03/01 11:17:28;;;;;;;15.55;7.55;;;;;;;3.82;60.23;102702.75;5050491;28;20082;-70
2023/03/01 11:20:34;;;;;;;13.73;6.30;;;;;;;3.94;60.21;102709.81;5050624;28;20021;-70
2023/03/01 11:23:06;;;;;;;13.98;7.15;;;;;;;3.93;58.96;102711.63;5050122;28;20094;-68
2023/03/01 11:25:46;;;;;;;17.15;7.32;;;;;;;3.98;59.62;102700.72;5030550;28;20061;-69
2023/03/01 11:28:16;;;;;;;11.75;4.82;;;;;;;4.07;57.88;102696.59;5030523;28;20021;-69